createdAt,value
2022-10-09T00:00:09.571Z,87.63
2022-10-09T00:03:10.242Z,87.09
2022-10-09T00:06:09.336Z,88.74
2022-10-09T00:09:06.993Z,92.06
2022-10-09T00:12:04.038Z,94.50
2022-10-09T00:15:02.637Z,94.61
2022-10-09T00:17:59.982Z,92.22
2022-10-09T00:20:56.914Z,89.84
2022-10-09T00:23:55.088Z,89.67
2022-10-09T00:26:51.960Z,89.75
2022-10-09T00:29:50.613Z,90.02
2022-10-09T00:32:48.068Z,92.66
2022-10-09T00:35:45.898Z,93.01
2022-10-09T00:38:43.648Z,92.88
2022-10-09T00:41:41.248Z,94.82
2022-10-09T00:45:00.258Z,92.02
2022-10-09T00:47:59.830Z,88.22
2022-10-09T00:50:58.411Z,87.94
2022-10-09T00:53:56.594Z,88.92
2022-10-09T00:56:53.980Z,89.29
2022-10-09T00:59:50.998Z,87.35
2022-10-09T01:02:48.258Z,87.21
2022-10-09T01:06:30.446Z,87.24
2022-10-09T01:09:59.678Z,84.86
2022-10-09T01:13:09.887Z,86.30
2022-10-09T01:16:20.251Z,86.22
2022-10-09T01:19:46.269Z,87.58
2022-10-09T01:23:05.290Z,89.87
2022-10-09T01:26:22.756Z,88.01
2022-10-09T01:29:20.399Z,86.16
2022-10-09T01:32:21.254Z,86.24
2022-10-09T01:35:19.770Z,85.36
2022-10-09T01:38:16.692Z,85.88
2022-10-09T01:41:13.982Z,88.04
2022-10-09T01:44:25.691Z,87.68
2022-10-09T01:47:23.057Z,90.25
2022-10-09T01:50:25.227Z,91.09
2022-10-09T01:53:22.591Z,90.63
2022-10-09T01:56:21.679Z,91.30
2022-10-09T01:59:19.032Z,88.70
2022-10-09T02:02:16.219Z,89.20
2022-10-09T02:05:19.293Z,89.16
2022-10-09T02:08:17.662Z,88.69
2022-10-09T02:11:15.279Z,87.27
2022-10-09T02:14:11.787Z,88.04
2022-10-09T02:17:14.754Z,86.25
2022-10-09T02:20:15.060Z,86.16
2022-10-09T02:23:12.552Z,86.86
2022-10-09T02:26:09.588Z,86.62
2022-10-09T02:29:07.294Z,87.06
2022-10-09T02:32:05.100Z,86.75
2022-10-09T02:35:02.159Z,86.75
2022-10-09T02:37:59.253Z,87.51
2022-10-09T02:41:00.337Z,86.45
2022-10-09T02:43:57.836Z,87.23
2022-10-09T02:46:54.931Z,87.17
2022-10-09T02:49:51.830Z,86.20
2022-10-09T02:52:49.147Z,84.43
2022-10-09T02:55:46.827Z,84.69
2022-10-09T02:58:43.768Z,85.05
2022-10-09T03:01:40.903Z,87.40
2022-10-09T03:04:37.827Z,87.17
2022-10-09T03:07:35.062Z,91.02
2022-10-09T03:10:32.773Z,96.48
2022-10-09T03:13:30.142Z,99.73
2022-10-09T03:16:27.091Z,100.00
2022-10-09T03:19:24.421Z,100.00
2022-10-09T03:22:22.064Z,100.00
2022-10-09T03:25:19.203Z,100.00
2022-10-09T03:28:16.025Z,100.00
2022-10-09T03:31:22.529Z,100.00
2022-10-09T03:34:30.091Z,100.00
2022-10-09T03:37:27.061Z,100.00
2022-10-09T03:40:23.942Z,100.00
2022-10-09T03:43:21.018Z,100.00
2022-10-09T03:46:18.224Z,100.00
2022-10-09T03:49:15.738Z,100.00
2022-10-09T03:52:13.077Z,100.00
2022-10-09T03:55:10.190Z,100.00
2022-10-09T03:58:06.993Z,100.00
2022-10-09T04:01:04.094Z,100.00
2022-10-09T04:04:01.017Z,100.00
2022-10-09T04:06:57.975Z,100.00
2022-10-09T04:09:55.610Z,100.00
2022-10-09T04:12:53.019Z,100.00
2022-10-09T04:15:51.402Z,100.00
2022-10-09T04:18:48.319Z,100.00
2022-10-09T04:21:45.974Z,100.00
2022-10-09T04:24:43.234Z,99.52
2022-10-09T04:27:40.224Z,97.62
2022-10-09T04:30:37.297Z,96.12
2022-10-09T04:33:34.302Z,97.83
2022-10-09T04:36:31.378Z,100.00
2022-10-09T04:39:27.885Z,100.00
2022-10-09T04:42:25.213Z,100.00
2022-10-09T04:45:22.076Z,99.67
2022-10-09T04:48:19.258Z,95.85
2022-10-09T04:51:16.469Z,96.89
2022-10-09T04:54:14.152Z,97.67
2022-10-09T04:57:11.142Z,100.00
2022-10-09T05:00:08.702Z,99.55
2022-10-09T05:03:06.379Z,100.00
2022-10-09T05:06:04.513Z,100.00
2022-10-09T05:09:02.215Z,100.00
2022-10-09T05:11:58.783Z,100.00
2022-10-09T05:14:55.914Z,100.00
2022-10-09T05:17:53.054Z,100.00
2022-10-09T05:20:50.395Z,100.00
2022-10-09T05:23:47.559Z,100.00
2022-10-09T05:26:45.093Z,100.00
2022-10-09T05:29:42.077Z,100.00
2022-10-09T05:32:38.837Z,100.00
2022-10-09T05:35:36.299Z,100.00
2022-10-09T05:38:33.657Z,100.00
2022-10-09T05:41:31.201Z,100.00
2022-10-09T05:44:28.241Z,100.00
2022-10-09T05:47:25.330Z,100.00
2022-10-09T05:50:21.887Z,100.00
2022-10-09T05:53:19.027Z,100.00
2022-10-09T05:56:17.141Z,100.00
2022-10-09T05:59:15.667Z,100.00
2022-10-09T06:02:13.096Z,100.00
2022-10-09T06:05:12.756Z,100.00
2022-10-09T06:08:10.003Z,100.00
2022-10-09T06:11:20.601Z,100.00
2022-10-09T06:14:18.116Z,100.00
2022-10-09T06:17:15.294Z,100.00
2022-10-09T06:20:12.031Z,100.00
2022-10-09T06:23:09.192Z,100.00
2022-10-09T06:26:11.722Z,100.00
2022-10-09T06:29:09.105Z,100.00
2022-10-09T06:32:07.253Z,100.00
2022-10-09T06:35:04.170Z,100.00
2022-10-09T06:38:01.503Z,100.00
2022-10-09T06:41:05.459Z,100.00
2022-10-09T06:44:06.282Z,100.00
2022-10-09T06:47:02.853Z,100.00
2022-10-09T06:50:00.342Z,100.00
2022-10-09T06:52:57.145Z,100.00
2022-10-09T06:55:54.610Z,100.00
2022-10-09T06:58:52.066Z,100.00
2022-10-09T07:01:49.198Z,100.00
2022-10-09T07:04:47.165Z,100.00
2022-10-09T07:07:44.095Z,100.00
2022-10-09T07:10:41.400Z,100.00
2022-10-09T07:13:38.356Z,100.00
2022-10-09T07:16:37.671Z,100.00
2022-10-09T07:19:35.085Z,100.00
2022-10-09T07:22:32.521Z,100.00
2022-10-09T07:25:30.315Z,100.00
2022-10-09T07:28:28.261Z,100.00
2022-10-09T07:31:25.458Z,100.00
2022-10-09T07:34:22.377Z,100.00
2022-10-09T07:37:19.364Z,100.00
2022-10-09T07:40:16.076Z,100.00
2022-10-09T07:43:13.526Z,100.00
2022-10-09T07:46:13.226Z,100.00
2022-10-09T07:49:09.957Z,99.83
2022-10-09T07:52:06.953Z,99.99
2022-10-09T07:55:04.463Z,100.00
2022-10-09T07:58:01.374Z,99.24
2022-10-09T08:01:06.785Z,99.97
2022-10-09T08:04:04.542Z,100.00
2022-10-09T08:07:02.099Z,100.00
2022-10-09T08:09:59.516Z,100.00
2022-10-09T08:12:56.345Z,100.00
2022-10-09T08:15:53.285Z,100.00
2022-10-09T08:18:54.356Z,100.00
2022-10-09T08:21:51.074Z,100.00
2022-10-09T08:24:48.636Z,100.00
2022-10-09T08:27:46.314Z,98.46
2022-10-09T08:30:43.325Z,98.62
2022-10-09T08:33:40.359Z,97.90
2022-10-09T08:36:37.260Z,98.07
2022-10-09T08:39:34.174Z,97.99
2022-10-09T08:42:32.418Z,96.04
2022-10-09T08:45:29.130Z,95.32
2022-10-09T08:48:25.961Z,96.42
2022-10-09T08:51:28.303Z,93.55
2022-10-09T08:54:34.914Z,94.50
2022-10-09T08:57:32.823Z,93.97
2022-10-09T09:00:58.820Z,92.61
2022-10-09T09:03:56.280Z,93.96
2022-10-09T09:07:19.876Z,94.38
2022-10-09T09:10:48.905Z,93.82
2022-10-09T09:14:09.094Z,91.76
2022-10-09T09:17:14.464Z,89.57
2022-10-09T09:20:26.989Z,90.67
2022-10-09T09:23:33.629Z,88.15
2022-10-09T09:26:31.274Z,89.18
2022-10-09T09:29:28.222Z,89.35
2022-10-09T09:32:26.521Z,90.05
2022-10-09T09:35:32.627Z,87.42
2022-10-09T09:38:30.269Z,85.73
2022-10-09T09:41:30.568Z,86.70
2022-10-09T09:44:27.495Z,85.43
2022-10-09T09:47:28.091Z,86.19
2022-10-09T09:50:56.475Z,86.30
2022-10-09T09:54:04.221Z,86.03
2022-10-09T09:57:13.856Z,85.23
2022-10-09T10:00:16.549Z,83.89
2022-10-09T10:03:14.702Z,82.86
2022-10-09T10:06:22.607Z,83.44
2022-10-09T10:09:19.415Z,82.15
2022-10-09T10:12:16.005Z,78.99
2022-10-09T10:15:29.568Z,80.90
2022-10-09T10:18:28.387Z,80.77
2022-10-09T10:21:24.981Z,81.10
2022-10-09T10:24:27.609Z,79.95
2022-10-09T10:27:29.818Z,79.73
2022-10-09T10:30:27.385Z,78.42
2022-10-09T10:33:29.313Z,78.12
2022-10-09T10:36:26.346Z,78.81
2022-10-09T10:39:37.276Z,78.34
2022-10-09T10:42:43.974Z,75.92
2022-10-09T10:45:53.961Z,74.96
2022-10-09T10:48:51.749Z,74.46
2022-10-09T10:52:18.585Z,73.06
2022-10-09T10:55:41.260Z,71.34
2022-10-09T10:58:47.218Z,69.21
2022-10-09T11:01:44.280Z,67.69
2022-10-09T11:04:50.658Z,66.10
2022-10-09T11:08:00.161Z,66.23
2022-10-09T11:11:06.141Z,62.93
2022-10-09T11:14:21.462Z,62.88
2022-10-09T11:17:45.921Z,62.92
2022-10-09T11:21:01.426Z,62.07
2022-10-09T11:24:40.450Z,62.32
2022-10-09T11:28:09.162Z,61.54
2022-10-09T11:31:15.036Z,63.60
2022-10-09T11:34:21.363Z,61.46
2022-10-09T11:37:21.217Z,61.31
2022-10-09T11:40:23.307Z,62.39
2022-10-09T11:43:23.332Z,59.86
2022-10-09T11:46:44.827Z,61.98
2022-10-09T11:50:03.801Z,60.40
2022-10-09T11:53:10.420Z,61.57
2022-10-09T11:56:09.054Z,60.89
2022-10-09T11:59:06.778Z,60.73
2022-10-09T12:02:24.906Z,59.52
2022-10-09T12:05:42.154Z,61.35
2022-10-09T12:08:43.997Z,59.92
2022-10-09T12:11:41.186Z,60.16
2022-10-09T12:14:38.430Z,60.09
2022-10-09T12:17:35.315Z,60.58
2022-10-09T12:20:41.123Z,59.88
2022-10-09T12:23:39.087Z,59.72
2022-10-09T12:26:36.340Z,60.02
2022-10-09T12:29:41.171Z,60.61
2022-10-09T12:32:46.469Z,58.96
2022-10-09T12:35:45.507Z,61.77
2022-10-09T12:38:42.718Z,61.48
2022-10-09T12:41:39.677Z,62.97
2022-10-09T12:44:39.975Z,60.16
2022-10-09T12:47:37.717Z,60.31
2022-10-09T12:50:34.925Z,61.22
2022-10-09T12:53:32.615Z,60.48
2022-10-09T12:56:33.334Z,59.21
2022-10-09T12:59:30.168Z,60.09
2022-10-09T13:02:27.695Z,60.91
2022-10-09T13:05:40.667Z,59.28
2022-10-09T13:08:38.345Z,57.86
2022-10-09T13:11:42.991Z,57.21
2022-10-09T13:14:52.525Z,58.05
2022-10-09T13:17:49.923Z,57.73
2022-10-09T13:20:47.923Z,56.35
2022-10-09T13:23:45.960Z,57.23
2022-10-09T13:26:43.711Z,56.66
2022-10-09T13:29:44.210Z,54.57
2022-10-09T13:32:41.574Z,54.41
2022-10-09T13:35:38.589Z,54.79
2022-10-09T13:38:35.716Z,56.15
2022-10-09T13:41:32.476Z,56.71
2022-10-09T13:44:29.534Z,58.21
2022-10-09T13:47:26.537Z,56.87
2022-10-09T13:50:24.416Z,56.21
2022-10-09T13:53:21.960Z,57.79
2022-10-09T13:56:19.828Z,57.32
2022-10-09T13:59:16.562Z,58.84
2022-10-09T14:02:13.530Z,55.84
2022-10-09T14:05:10.812Z,55.83
2022-10-09T14:08:07.723Z,57.19
2022-10-09T14:11:04.898Z,57.21
2022-10-09T14:14:02.824Z,54.31
2022-10-09T14:16:59.660Z,54.47
2022-10-09T14:19:56.295Z,55.19
2022-10-09T14:22:53.584Z,53.91
2022-10-09T14:25:50.518Z,54.64
2022-10-09T14:28:47.790Z,53.95
2022-10-09T14:31:44.686Z,54.60
2022-10-09T14:34:41.427Z,53.75
2022-10-09T14:37:42.373Z,54.77
2022-10-09T14:40:43.469Z,54.35
2022-10-09T14:43:40.875Z,54.86
2022-10-09T14:46:39.213Z,54.90
2022-10-09T14:49:36.288Z,54.28
2022-10-09T14:52:33.681Z,54.24
2022-10-09T14:55:30.820Z,54.65
2022-10-09T14:58:29.642Z,55.30
2022-10-09T15:01:26.961Z,56.23
2022-10-09T15:04:25.897Z,56.65
2022-10-09T15:07:28.215Z,57.11
2022-10-09T15:10:25.773Z,57.72
2022-10-09T15:13:25.185Z,58.88
2022-10-09T15:16:22.650Z,60.14
2022-10-09T15:19:19.549Z,59.79
2022-10-09T15:22:17.000Z,60.75
2022-10-09T15:25:16.772Z,60.41
2022-10-09T15:28:13.627Z,60.62
2022-10-09T15:31:29.251Z,60.85
2022-10-09T15:34:26.941Z,61.96
2022-10-09T15:37:23.581Z,61.37
2022-10-09T15:40:20.759Z,60.66
2022-10-09T15:43:18.913Z,60.39
2022-10-09T15:46:16.749Z,61.54
2022-10-09T15:49:13.476Z,60.81
2022-10-09T15:52:10.403Z,60.81
2022-10-09T15:55:08.227Z,60.35
2022-10-09T15:58:05.437Z,60.72
2022-10-09T16:01:04.801Z,60.61
2022-10-09T16:04:01.336Z,61.20
2022-10-09T16:06:58.400Z,61.84
2022-10-09T16:09:56.911Z,61.46
2022-10-09T16:12:53.597Z,61.86
2022-10-09T16:15:50.509Z,62.66
2022-10-09T16:18:48.074Z,63.07
2022-10-09T16:21:45.701Z,63.76
2022-10-09T16:24:43.769Z,63.56
2022-10-09T16:27:40.502Z,63.20
2022-10-09T16:30:42.131Z,63.51
2022-10-09T16:33:39.577Z,65.32
2022-10-09T16:36:36.423Z,65.72
2022-10-09T16:39:33.571Z,66.20
2022-10-09T16:42:31.171Z,65.15
2022-10-09T16:45:29.172Z,66.64
2022-10-09T16:48:27.143Z,66.43
2022-10-09T16:51:27.146Z,67.15
2022-10-09T16:54:24.781Z,67.56
2022-10-09T16:57:21.758Z,67.98
2022-10-09T17:00:19.421Z,68.12
2022-10-09T17:03:16.988Z,67.87
2022-10-09T17:06:15.937Z,67.88
2022-10-09T17:09:13.953Z,67.76
2022-10-09T17:12:13.103Z,68.66
2022-10-09T17:15:10.534Z,68.41
2022-10-09T17:18:07.967Z,69.10
2022-10-09T17:21:06.159Z,69.23
2022-10-09T17:24:04.267Z,69.60
2022-10-09T17:27:01.499Z,68.91
2022-10-09T17:29:58.540Z,69.71
2022-10-09T17:32:55.289Z,69.90
2022-10-09T17:35:52.800Z,70.54
2022-10-09T17:38:49.904Z,70.44
2022-10-09T17:41:47.549Z,70.62
2022-10-09T17:44:44.697Z,70.63
2022-10-09T17:47:41.796Z,70.89
2022-10-09T17:50:38.776Z,70.99
2022-10-09T17:53:35.759Z,71.36
2022-10-09T17:56:32.867Z,72.06
2022-10-09T17:59:29.426Z,72.25
2022-10-09T18:02:27.075Z,71.92
2022-10-09T18:05:24.622Z,72.34
2022-10-09T18:08:22.424Z,72.63
2022-10-09T18:11:20.341Z,73.24
2022-10-09T18:14:17.695Z,73.35
2022-10-09T18:17:15.024Z,72.95
2022-10-09T18:20:11.684Z,72.50
2022-10-09T18:23:09.641Z,72.05
2022-10-09T18:26:08.131Z,72.68
2022-10-09T18:29:06.100Z,72.37
2022-10-09T18:32:03.896Z,72.15
2022-10-09T18:35:01.047Z,72.22
2022-10-09T18:37:58.394Z,72.40
2022-10-09T18:40:55.683Z,72.69
2022-10-09T18:43:53.264Z,73.23
2022-10-09T18:46:55.847Z,73.05
2022-10-09T18:49:53.174Z,73.12
2022-10-09T18:52:50.979Z,72.27
2022-10-09T18:55:49.042Z,72.55
2022-10-09T18:58:45.719Z,73.54
2022-10-09T19:01:42.552Z,74.24
2022-10-09T19:04:39.796Z,74.55
2022-10-09T19:07:36.849Z,74.60
2022-10-09T19:10:33.713Z,74.45
2022-10-09T19:13:30.857Z,74.76
2022-10-09T19:16:28.787Z,74.67
2022-10-09T19:19:25.548Z,75.60
2022-10-09T19:22:24.083Z,76.38
2022-10-09T19:25:22.030Z,77.37
2022-10-09T19:28:19.354Z,77.34
2022-10-09T19:31:17.052Z,77.43
2022-10-09T19:34:13.860Z,77.69
2022-10-09T19:37:10.789Z,76.97
2022-10-09T19:40:08.496Z,76.62
2022-10-09T19:43:05.726Z,75.81
2022-10-09T19:46:04.561Z,75.18
2022-10-09T19:49:01.841Z,74.52
2022-10-09T19:51:58.696Z,75.02
2022-10-09T19:54:55.628Z,76.37
2022-10-09T19:57:52.803Z,76.81
2022-10-09T20:00:49.591Z,78.34
2022-10-09T20:03:47.323Z,78.46
2022-10-09T20:06:45.077Z,78.28
2022-10-09T20:09:42.004Z,77.63
2022-10-09T20:12:39.077Z,77.02
2022-10-09T20:15:35.875Z,76.83
2022-10-09T20:18:33.271Z,76.93
2022-10-09T20:21:31.784Z,77.33
2022-10-09T20:24:28.599Z,78.41
2022-10-09T20:27:25.658Z,78.91
2022-10-09T20:30:22.803Z,78.11
2022-10-09T20:33:19.664Z,78.15
2022-10-09T20:36:20.649Z,78.61
2022-10-09T20:39:19.542Z,78.65
2022-10-09T20:42:17.076Z,79.42
2022-10-09T20:45:14.170Z,80.55
2022-10-09T20:48:11.154Z,80.84
2022-10-09T20:51:07.731Z,81.63
2022-10-09T20:54:05.319Z,82.22
2022-10-09T20:57:02.927Z,81.48
2022-10-09T20:59:59.807Z,81.22
2022-10-09T21:02:56.988Z,80.16
2022-10-09T21:05:53.641Z,80.69
2022-10-09T21:08:51.085Z,81.00
2022-10-09T21:11:47.604Z,81.98
2022-10-09T21:14:45.005Z,82.47
2022-10-09T21:17:42.140Z,82.92
2022-10-09T21:20:39.895Z,83.21
2022-10-09T21:23:36.727Z,83.82
2022-10-09T21:26:35.791Z,84.44
2022-10-09T21:29:32.798Z,84.58
2022-10-09T21:32:29.591Z,84.19
2022-10-09T21:35:26.757Z,84.42
2022-10-09T21:38:24.122Z,84.35
2022-10-09T21:41:20.634Z,84.04
2022-10-09T21:44:18.187Z,84.07
2022-10-09T21:47:20.680Z,83.81
2022-10-09T21:50:17.938Z,83.90
2022-10-09T21:53:14.833Z,84.59
2022-10-09T21:56:12.043Z,84.10
2022-10-09T21:59:08.905Z,83.54
2022-10-09T22:02:06.024Z,83.38
2022-10-09T22:05:02.618Z,83.44
2022-10-09T22:08:00.490Z,83.48
2022-10-09T22:10:57.835Z,83.84
2022-10-09T22:13:55.574Z,84.37
2022-10-09T22:16:52.777Z,84.29
2022-10-09T22:19:50.680Z,83.67
2022-10-09T22:22:48.589Z,83.13
2022-10-09T22:25:56.422Z,83.93
2022-10-09T22:28:53.967Z,84.38
2022-10-09T22:31:51.012Z,84.05
2022-10-09T22:34:50.701Z,84.32
2022-10-09T22:37:48.162Z,84.84
2022-10-09T22:40:47.219Z,85.47
2022-10-09T22:43:45.814Z,86.27
2022-10-09T22:46:43.759Z,86.25
2022-10-09T22:49:40.781Z,86.32
2022-10-09T22:52:37.874Z,87.23
2022-10-09T22:55:34.674Z,88.08
2022-10-09T22:58:32.306Z,88.60
2022-10-09T23:01:35.442Z,89.44
2022-10-09T23:04:32.955Z,89.78
2022-10-09T23:07:29.879Z,90.09
2022-10-09T23:10:26.843Z,90.58
2022-10-09T23:13:23.788Z,90.81
2022-10-09T23:16:20.794Z,90.68
2022-10-09T23:19:18.171Z,90.40
2022-10-09T23:22:15.169Z,90.74
2022-10-09T23:25:12.011Z,90.87
2022-10-09T23:28:09.015Z,90.90
2022-10-09T23:31:11.375Z,90.73
2022-10-09T23:34:08.619Z,90.82
2022-10-09T23:37:06.129Z,90.84
2022-10-09T23:40:03.005Z,90.95
2022-10-09T23:42:59.961Z,90.61
2022-10-09T23:45:58.096Z,90.48
2022-10-09T23:48:54.938Z,90.56
2022-10-09T23:51:52.107Z,90.52
2022-10-09T23:54:49.157Z,89.71
2022-10-09T23:57:45.940Z,89.26
